createdAt,value
2022-09-26T00:01:27.472Z,11.90
2022-09-26T00:03:58.169Z,11.70
2022-09-26T00:06:26.187Z,11.35
2022-09-26T00:08:54.308Z,10.93
2022-09-26T00:11:24.637Z,11.65
2022-09-26T00:13:54.183Z,10.95
2022-09-26T00:16:21.970Z,11.27
2022-09-26T00:18:50.818Z,11.00
2022-09-26T00:21:18.565Z,11.13
2022-09-26T00:23:46.538Z,12.13
2022-09-26T00:26:15.499Z,11.02
2022-09-26T00:28:42.822Z,11.38
2022-09-26T00:31:15.114Z,12.02
2022-09-26T00:33:43.353Z,11.40
2022-09-26T00:36:11.033Z,11.25
2022-09-26T00:38:38.148Z,11.38
2022-09-26T00:41:06.817Z,10.45
2022-09-26T00:43:55.663Z,10.98
2022-09-26T00:46:34.869Z,11.65
2022-09-26T00:49:22.918Z,11.57
2022-09-26T00:52:00.057Z,10.77
2022-09-26T00:57:00.135Z,10.98
2022-09-26T00:59:43.759Z,11.68
2022-09-26T01:02:11.961Z,11.25
2022-09-26T01:04:41.639Z,11.05
2022-09-26T01:07:17.364Z,11.88
2022-09-26T01:09:45.149Z,12.80
2022-09-26T01:12:12.953Z,12.55
2022-09-26T01:14:41.872Z,14.32
2022-09-26T01:17:11.116Z,15.57
2022-09-26T01:19:47.440Z,15.50
2022-09-26T01:22:48.817Z,16.33
2022-09-26T01:25:35.140Z,16.50
2022-09-26T01:28:35.827Z,16.35
2022-09-26T01:31:21.607Z,14.13
2022-09-26T01:34:11.579Z,14.50
2022-09-26T01:36:55.546Z,16.05
2022-09-26T01:39:46.742Z,15.30
2022-09-26T01:42:22.654Z,17.08
2022-09-26T01:44:53.720Z,18.77
2022-09-26T01:47:57.013Z,18.83
2022-09-26T01:50:35.106Z,20.30
2022-09-26T01:53:06.535Z,20.42
2022-09-26T01:55:41.199Z,20.80
2022-09-26T01:58:17.331Z,18.23
2022-09-26T02:00:49.115Z,19.63
2022-09-26T02:03:27.498Z,15.93
2022-09-26T02:06:04.269Z,15.73
2022-09-26T02:08:38.139Z,14.73
2022-09-26T02:11:10.959Z,14.60
2022-09-26T02:13:47.591Z,13.48
2022-09-26T02:16:40.701Z,12.25
2022-09-26T02:19:22.222Z,13.43
2022-09-26T02:21:49.432Z,12.25
2022-09-26T02:24:18.218Z,12.85
2022-09-26T02:26:45.382Z,13.10
2022-09-26T02:29:14.279Z,12.48
2022-09-26T02:31:51.725Z,13.07
2022-09-26T02:34:19.434Z,14.27
2022-09-26T02:36:46.587Z,14.88
2022-09-26T02:39:14.060Z,15.25
2022-09-26T02:42:21.859Z,15.85
2022-09-26T02:45:26.644Z,14.93
2022-09-26T02:48:18.238Z,15.10
2022-09-26T02:51:12.924Z,15.68
2022-09-26T02:53:45.969Z,17.20
2022-09-26T02:56:43.261Z,16.88
2022-09-26T02:59:21.787Z,15.45
2022-09-26T03:02:11.978Z,16.42
2022-09-26T03:04:55.197Z,16.23
2022-09-26T03:07:48.361Z,15.55
2022-09-26T03:10:17.032Z,15.93
2022-09-26T03:12:45.439Z,16.08
2022-09-26T03:15:14.490Z,17.15
2022-09-26T03:17:47.622Z,16.35
2022-09-26T03:20:21.706Z,16.20
2022-09-26T03:22:51.543Z,16.33
2022-09-26T03:25:23.033Z,17.35
2022-09-26T03:27:58.754Z,16.35
2022-09-26T03:30:25.867Z,15.05
2022-09-26T03:33:13.941Z,14.70
2022-09-26T03:35:41.066Z,14.07
2022-09-26T03:38:12.386Z,13.80
2022-09-26T03:40:46.744Z,11.63
2022-09-26T03:43:32.489Z,11.43
2022-09-26T03:46:05.517Z,11.82
2022-09-26T03:48:34.321Z,10.02
2022-09-26T03:51:08.012Z,11.25
2022-09-26T03:53:37.533Z,11.00
2022-09-26T03:56:10.413Z,10.52
2022-09-26T03:58:37.895Z,9.82
2022-09-26T04:01:23.628Z,10.95
2022-09-26T04:03:51.474Z,10.77
2022-09-26T04:06:20.427Z,10.52
2022-09-26T04:08:50.276Z,10.13
2022-09-26T04:11:23.139Z,10.50
2022-09-26T04:13:53.349Z,11.02
2022-09-26T04:16:24.385Z,9.90
2022-09-26T04:19:04.993Z,10.38
2022-09-26T04:21:34.508Z,10.32
2022-09-26T04:24:02.799Z,10.98
2022-09-26T04:26:29.850Z,10.30
2022-09-26T04:28:58.121Z,9.88
2022-09-26T04:31:45.293Z,9.93
2022-09-26T04:34:16.581Z,10.35
2022-09-26T04:36:43.784Z,9.75
2022-09-26T04:39:11.678Z,9.98
2022-09-26T04:41:39.539Z,9.32
2022-09-26T04:44:06.720Z,9.30
2022-09-26T04:46:34.043Z,9.55
2022-09-26T04:49:02.056Z,8.88
2022-09-26T04:51:33.101Z,9.32
2022-09-26T04:54:00.594Z,8.63
2022-09-26T04:56:29.959Z,7.75
2022-09-26T04:58:58.623Z,7.78
2022-09-26T05:01:31.124Z,8.05
2022-09-26T05:04:11.045Z,7.03
2022-09-26T05:06:39.341Z,6.93
2022-09-26T05:09:10.029Z,7.32
2022-09-26T05:11:47.833Z,7.70
2022-09-26T05:14:15.191Z,8.05
2022-09-26T05:16:42.463Z,7.90
2022-09-26T05:19:13.470Z,7.22
2022-09-26T05:21:51.734Z,7.70
2022-09-26T05:24:37.630Z,7.25
2022-09-26T05:27:07.537Z,7.05
2022-09-26T05:29:35.120Z,7.40
2022-09-26T05:32:05.043Z,6.18
2022-09-26T05:34:36.877Z,6.65
2022-09-26T05:37:05.374Z,6.40
2022-09-26T05:39:51.547Z,6.70
2022-09-26T05:42:19.744Z,7.03
2022-09-26T05:44:47.270Z,8.35
2022-09-26T05:47:14.373Z,7.32
2022-09-26T05:49:41.589Z,7.32
2022-09-26T05:52:12.284Z,7.57
2022-09-26T05:54:39.253Z,6.55
2022-09-26T05:57:26.225Z,6.35
2022-09-26T05:59:55.260Z,5.85
2022-09-26T06:02:25.548Z,5.95
2022-09-26T06:05:04.132Z,6.35
2022-09-26T06:07:37.164Z,6.28
2022-09-26T06:10:07.510Z,6.43
2022-09-26T06:12:47.581Z,7.00
2022-09-26T06:15:17.511Z,7.18
2022-09-26T06:17:44.904Z,7.30
2022-09-26T06:20:13.224Z,6.68
2022-09-26T06:22:43.966Z,6.47
2022-09-26T06:25:12.502Z,7.30
2022-09-26T06:27:40.303Z,6.28
2022-09-26T06:30:11.776Z,7.22
2022-09-26T06:32:39.304Z,7.15
2022-09-26T06:35:33.324Z,6.75
2022-09-26T06:38:10.003Z,6.70
2022-09-26T06:40:37.427Z,7.43
2022-09-26T06:43:05.565Z,7.05
2022-09-26T06:45:51.173Z,7.05
2022-09-26T06:48:28.944Z,6.90
2022-09-26T06:51:01.616Z,6.60
2022-09-26T06:53:31.517Z,6.50
2022-09-26T06:55:59.946Z,7.05
2022-09-26T06:58:28.084Z,7.53
2022-09-26T07:01:09.655Z,6.47
2022-09-26T07:03:45.628Z,6.13
2022-09-26T07:06:31.806Z,5.65
2022-09-26T07:09:05.533Z,5.28
2022-09-26T07:12:12.901Z,4.90
2022-09-26T07:14:34.250Z,5.10
2022-09-26T07:17:13.944Z,5.32
2022-09-26T07:20:01.258Z,5.38
2022-09-26T07:23:05.994Z,5.43
2022-09-26T07:25:33.712Z,5.60
2022-09-26T07:28:02.354Z,4.82
2022-09-26T07:30:40.403Z,4.85
2022-09-26T07:33:13.837Z,5.18
2022-09-26T07:35:48.344Z,5.32
2022-09-26T07:38:16.085Z,4.82
2022-09-26T07:40:44.046Z,5.30
2022-09-26T07:43:42.805Z,5.32
2022-09-26T07:46:16.800Z,4.72
2022-09-26T07:49:06.207Z,4.38
2022-09-26T07:51:56.062Z,3.90
2022-09-26T07:54:28.320Z,4.32
2022-09-26T07:57:14.474Z,4.00
2022-09-26T07:59:59.838Z,4.32
2022-09-26T08:02:48.851Z,4.97
2022-09-26T08:05:21.233Z,4.32
2022-09-26T08:07:49.651Z,6.43
2022-09-26T08:10:36.531Z,5.53
2022-09-26T08:13:35.822Z,4.95
2022-09-26T08:16:08.521Z,4.72
2022-09-26T08:18:40.705Z,4.00
2022-09-26T08:21:08.238Z,4.60
2022-09-26T08:23:35.734Z,4.32
2022-09-26T08:26:41.870Z,4.32
2022-09-26T08:29:18.728Z,4.65
2022-09-26T08:31:49.177Z,3.97
2022-09-26T08:34:17.672Z,3.90
2022-09-26T08:36:54.328Z,4.63
2022-09-26T08:39:38.151Z,3.92
2022-09-26T08:42:36.465Z,3.95
2022-09-26T08:46:10.243Z,4.18
2022-09-26T08:48:58.683Z,4.40
2022-09-26T08:51:39.876Z,4.32
2022-09-26T08:54:22.037Z,4.57
2022-09-26T08:56:57.985Z,4.10
2022-09-26T08:59:34.658Z,4.97
2022-09-26T09:05:03.238Z,4.60
2022-09-26T09:07:31.720Z,4.78
2022-09-26T09:10:03.851Z,4.10
2022-09-26T09:13:25.917Z,4.72
2022-09-26T09:16:06.075Z,4.10
2022-09-26T09:19:09.530Z,3.55
2022-09-26T09:22:17.922Z,2.70
2022-09-26T09:25:03.564Z,2.53
2022-09-26T09:27:54.219Z,2.30
2022-09-26T09:30:36.121Z,2.83
2022-09-26T09:33:39.704Z,2.72
2022-09-26T09:36:50.892Z,2.70
2022-09-26T09:39:44.858Z,4.22
2022-09-26T09:42:37.110Z,3.78
2022-09-26T09:45:17.456Z,3.85
2022-09-26T09:47:44.913Z,4.20
2022-09-26T09:50:22.098Z,4.00
2022-09-26T09:55:33.002Z,3.40
2022-09-26T09:58:18.542Z,2.92
2022-09-26T10:00:56.572Z,3.30
2022-09-26T10:03:47.926Z,2.80
2022-09-26T10:06:46.579Z,2.60
2022-09-26T10:09:35.898Z,2.28
2022-09-26T10:12:29.374Z,2.53
2022-09-26T10:15:20.437Z,2.80
2022-09-26T10:18:25.778Z,2.60
2022-09-26T10:21:16.393Z,2.63
2022-09-26T10:23:47.285Z,3.00
2022-09-26T10:26:39.732Z,2.67
2022-09-26T10:29:33.954Z,3.00
2022-09-26T10:32:02.408Z,2.63
2022-09-26T10:34:32.909Z,2.80
2022-09-26T10:37:24.333Z,2.80
2022-09-26T10:42:47.298Z,2.47
2022-09-26T10:45:18.193Z,2.60
2022-09-26T10:48:06.262Z,2.70
2022-09-26T10:51:18.793Z,2.50
2022-09-26T10:54:06.007Z,2.75
2022-09-26T10:56:39.289Z,2.45
2022-09-26T10:59:10.129Z,2.50
2022-09-26T11:01:43.367Z,2.28
2022-09-26T11:04:15.532Z,2.40
2022-09-26T11:07:05.738Z,2.42
2022-09-26T11:09:47.075Z,2.60
2022-09-26T11:12:57.814Z,2.42
2022-09-26T11:15:25.372Z,2.58
2022-09-26T11:17:53.792Z,2.65
2022-09-26T11:20:37.146Z,2.60
2022-09-26T11:23:13.077Z,2.20
2022-09-26T11:26:43.248Z,2.30
2022-09-26T11:29:22.066Z,2.28
2022-09-26T11:32:24.021Z,2.10
2022-09-26T11:34:54.591Z,3.28
2022-09-26T11:37:39.394Z,2.83
2022-09-26T11:40:28.150Z,2.30
2022-09-26T11:43:08.789Z,2.30
2022-09-26T11:45:55.933Z,1.70
2022-09-26T11:48:44.252Z,1.90
2022-09-26T11:51:59.153Z,1.90
2022-09-26T11:55:01.106Z,2.03
2022-09-26T11:58:03.572Z,1.75
2022-09-26T12:00:55.984Z,1.80
2022-09-26T12:04:00.714Z,2.13
2022-09-26T12:06:56.177Z,1.90
2022-09-26T12:09:39.335Z,2.00
2022-09-26T12:12:15.353Z,2.28
2022-09-26T12:14:52.840Z,2.40
2022-09-26T12:17:41.072Z,2.10
2022-09-26T12:20:17.011Z,2.05
2022-09-26T12:22:49.886Z,1.90
2022-09-26T12:25:41.699Z,2.13
2022-09-26T12:28:33.684Z,1.77
2022-09-26T12:31:19.663Z,1.90
2022-09-26T12:34:18.897Z,1.77
2022-09-26T12:37:09.430Z,1.85
2022-09-26T12:40:06.812Z,1.95
2022-09-26T12:42:42.589Z,2.15
2022-09-26T12:45:28.428Z,2.20
2022-09-26T12:47:55.674Z,2.35
2022-09-26T12:50:41.321Z,2.10
2022-09-26T12:53:14.146Z,1.88
2022-09-26T12:56:24.073Z,1.90
2022-09-26T12:59:12.887Z,1.98
2022-09-26T13:01:50.297Z,1.95
2022-09-26T13:04:26.431Z,1.80
2022-09-26T13:07:18.885Z,1.90
2022-09-26T13:10:29.019Z,1.90
2022-09-26T13:13:30.275Z,1.80
2022-09-26T13:16:28.225Z,2.00
2022-09-26T13:19:00.505Z,2.10
2022-09-26T13:21:45.094Z,1.90
2022-09-26T13:24:19.749Z,1.80
2022-09-26T13:27:27.042Z,1.90
2022-09-26T13:30:23.560Z,2.10
2022-09-26T13:32:57.495Z,1.80
2022-09-26T13:35:27.929Z,1.77
2022-09-26T13:38:20.252Z,2.58
2022-09-26T13:40:58.949Z,1.80
2022-09-26T13:43:31.072Z,1.95
2022-09-26T13:46:06.642Z,1.95
2022-09-26T13:48:50.212Z,2.00
2022-09-26T13:51:30.816Z,2.00
2022-09-26T13:54:17.014Z,2.20
2022-09-26T13:56:49.787Z,2.10
2022-09-26T13:59:18.280Z,1.70
2022-09-26T14:02:16.544Z,2.00
2022-09-26T14:04:45.603Z,1.45
2022-09-26T14:07:31.038Z,1.55
2022-09-26T14:10:01.872Z,1.30
2022-09-26T14:13:08.462Z,1.52
2022-09-26T14:15:48.411Z,1.45
2022-09-26T14:18:27.299Z,1.40
2022-09-26T14:21:19.515Z,1.50
2022-09-26T14:23:49.538Z,1.52
2022-09-26T14:26:28.189Z,1.50
2022-09-26T14:28:57.370Z,1.38
2022-09-26T14:31:24.265Z,1.40
2022-09-26T14:34:17.473Z,1.67
2022-09-26T14:36:46.633Z,1.65
2022-09-26T14:39:38.737Z,2.13
2022-09-26T14:42:17.114Z,2.17
2022-09-26T14:45:06.115Z,2.10
2022-09-26T14:47:50.519Z,2.28
2022-09-26T14:50:20.798Z,2.10
2022-09-26T14:52:58.063Z,2.25
2022-09-26T14:55:27.137Z,2.50
2022-09-26T14:58:37.377Z,2.50
2022-09-26T15:01:46.089Z,3.10
2022-09-26T15:07:01.746Z,2.78
2022-09-26T15:09:43.691Z,3.50
2022-09-26T15:12:23.095Z,3.10
2022-09-26T15:15:09.819Z,2.80
2022-09-26T15:17:40.990Z,3.10
2022-09-26T15:20:13.502Z,3.00
2022-09-26T15:22:42.686Z,2.38
2022-09-26T15:25:19.692Z,2.30
2022-09-26T15:30:24.646Z,2.42
2022-09-26T15:32:57.535Z,2.45
2022-09-26T15:35:26.986Z,2.63
2022-09-26T15:38:00.206Z,2.40
2022-09-26T15:40:30.343Z,2.70
2022-09-26T15:43:09.978Z,2.55
2022-09-26T15:45:50.224Z,2.47
2022-09-26T15:48:20.121Z,2.50
2022-09-26T15:50:53.672Z,2.63
2022-09-26T15:53:31.967Z,2.30
2022-09-26T15:56:10.241Z,2.60
2022-09-26T15:59:01.092Z,2.75
2022-09-26T16:01:30.794Z,2.65
2022-09-26T16:04:13.498Z,3.10
2022-09-26T16:06:52.788Z,3.00
2022-09-26T16:09:43.673Z,2.83
2022-09-26T16:12:22.437Z,2.95
2022-09-26T16:14:52.537Z,2.70
2022-09-26T16:17:28.099Z,3.10
2022-09-26T16:20:02.861Z,3.83
2022-09-26T16:22:36.950Z,3.85
2022-09-26T16:25:19.597Z,3.53
2022-09-26T16:27:59.809Z,2.75
2022-09-26T16:30:33.747Z,3.10
2022-09-26T16:33:03.890Z,3.00
2022-09-26T16:35:33.624Z,3.20
2022-09-26T16:38:23.194Z,2.67
2022-09-26T16:40:52.540Z,3.00
2022-09-26T16:43:30.035Z,2.90
2022-09-26T16:46:09.310Z,2.75
2022-09-26T16:48:41.322Z,2.72
2022-09-26T16:51:17.541Z,3.08
2022-09-26T16:54:00.658Z,3.33
2022-09-26T16:56:28.654Z,3.70
2022-09-26T16:58:59.435Z,3.50
2022-09-26T17:01:46.452Z,3.00
2022-09-26T17:04:21.593Z,2.97
2022-09-26T17:06:48.849Z,2.97
2022-09-26T17:09:18.564Z,3.17
2022-09-26T17:11:48.438Z,2.85
2022-09-26T17:14:22.156Z,2.88
2022-09-26T17:16:55.461Z,2.80
2022-09-26T17:19:24.481Z,2.65
2022-09-26T17:21:53.080Z,3.00
2022-09-26T17:24:26.320Z,2.75
2022-09-26T17:27:05.846Z,3.30
2022-09-26T17:29:36.603Z,3.20
2022-09-26T17:32:09.634Z,3.45
2022-09-26T17:34:37.754Z,3.60
2022-09-26T17:37:05.351Z,3.40
2022-09-26T17:39:32.539Z,3.70
2022-09-26T17:42:00.233Z,3.47
2022-09-26T17:44:29.767Z,3.10
2022-09-26T17:46:57.791Z,3.30
2022-09-26T17:49:35.311Z,3.80
2022-09-26T17:52:05.297Z,3.47
2022-09-26T17:54:40.778Z,3.58
2022-09-26T17:57:14.630Z,3.40
2022-09-26T17:59:42.955Z,2.92
2022-09-26T18:02:29.317Z,3.40
2022-09-26T18:04:59.377Z,3.78
2022-09-26T18:07:36.216Z,3.97
2022-09-26T18:10:08.339Z,4.38
2022-09-26T18:12:35.627Z,4.72
2022-09-26T18:15:04.771Z,4.80
2022-09-26T18:17:32.395Z,5.05
2022-09-26T18:19:59.691Z,4.75
2022-09-26T18:22:33.189Z,4.93
2022-09-26T18:25:08.598Z,4.60
2022-09-26T18:27:41.880Z,5.05
2022-09-26T18:30:14.079Z,4.40
2022-09-26T18:32:44.291Z,4.65
2022-09-26T18:35:17.103Z,5.63
2022-09-26T18:37:44.809Z,4.50
2022-09-26T18:40:17.086Z,4.80
2022-09-26T18:42:45.787Z,4.25
2022-09-26T18:45:33.298Z,8.60
2022-09-26T18:48:02.452Z,6.05
2022-09-26T18:50:37.190Z,5.03
2022-09-26T18:53:15.763Z,5.40
2022-09-26T18:56:01.644Z,4.93
2022-09-26T18:58:29.769Z,5.20
2022-09-26T19:01:01.759Z,4.82
2022-09-26T19:03:35.038Z,4.45
2022-09-26T19:06:41.040Z,4.93
2022-09-26T19:09:15.070Z,5.00
2022-09-26T19:11:42.679Z,4.75
2022-09-26T19:14:24.709Z,4.68
2022-09-26T19:16:52.885Z,4.20
2022-09-26T19:19:20.773Z,4.30
2022-09-26T19:21:47.816Z,4.22
2022-09-26T19:24:21.305Z,4.57
2022-09-26T19:27:04.731Z,4.50
2022-09-26T19:29:45.984Z,4.60
2022-09-26T19:32:21.176Z,4.78
2022-09-26T19:35:01.149Z,4.63
2022-09-26T19:37:28.396Z,5.78
2022-09-26T19:39:57.881Z,4.88
2022-09-26T19:42:26.428Z,4.85
2022-09-26T19:44:53.518Z,5.07
2022-09-26T19:47:23.736Z,5.20
2022-09-26T19:49:53.001Z,4.65
2022-09-26T19:52:20.920Z,5.20
2022-09-26T19:54:48.864Z,4.75
2022-09-26T19:57:21.112Z,4.82
2022-09-26T19:59:49.839Z,4.40
2022-09-26T20:02:22.834Z,4.78
2022-09-26T20:04:51.248Z,5.50
2022-09-26T20:07:19.705Z,5.10
2022-09-26T20:09:47.322Z,5.20
2022-09-26T20:12:14.948Z,5.00
2022-09-26T20:14:41.965Z,4.93
2022-09-26T20:17:21.194Z,4.55
2022-09-26T20:19:48.781Z,4.28
2022-09-26T20:22:19.506Z,4.78
2022-09-26T20:24:49.433Z,4.63
2022-09-26T20:27:26.599Z,4.88
2022-09-26T20:30:12.682Z,4.97
2022-09-26T20:32:42.638Z,5.22
2022-09-26T20:35:16.021Z,5.55
2022-09-26T20:37:44.037Z,5.22
2022-09-26T20:40:21.344Z,5.70
2022-09-26T20:42:51.798Z,5.68
2022-09-26T20:45:25.580Z,5.95
2022-09-26T20:47:52.623Z,6.13
2022-09-26T20:50:20.883Z,6.20
2022-09-26T20:52:48.280Z,6.43
2022-09-26T20:55:18.260Z,6.95
2022-09-26T20:57:46.162Z,6.13
2022-09-26T21:00:19.486Z,5.57
2022-09-26T21:02:51.476Z,5.50
2022-09-26T21:05:22.934Z,6.07
2022-09-26T21:07:50.916Z,5.30
2022-09-26T21:10:29.025Z,5.28
2022-09-26T21:12:57.027Z,5.38
2022-09-26T21:15:25.998Z,5.97
2022-09-26T21:17:54.345Z,5.30
2022-09-26T21:20:26.273Z,5.15
2022-09-26T21:23:20.551Z,7.30
2022-09-26T21:25:47.653Z,6.13
2022-09-26T21:28:26.761Z,5.97
2022-09-26T21:31:06.321Z,5.50
2022-09-26T21:33:33.641Z,6.30
2022-09-26T21:36:01.024Z,5.78
2022-09-26T21:38:28.208Z,5.85
2022-09-26T21:40:59.795Z,5.45
2022-09-26T21:43:35.519Z,5.35
2022-09-26T21:46:02.962Z,5.32
2022-09-26T21:48:30.150Z,6.22
2022-09-26T21:50:58.620Z,5.47
2022-09-26T21:53:57.760Z,6.00
2022-09-26T21:56:29.972Z,5.43
2022-09-26T21:58:57.709Z,5.82
2022-09-26T22:01:25.173Z,4.97
2022-09-26T22:03:53.547Z,4.80
2022-09-26T22:06:20.693Z,4.93
2022-09-26T22:08:47.788Z,5.22
2022-09-26T22:11:15.022Z,5.10
2022-09-26T22:13:42.168Z,4.88
2022-09-26T22:16:13.311Z,4.70
2022-09-26T22:18:41.581Z,4.88
2022-09-26T22:21:10.359Z,5.28
2022-09-26T22:23:38.285Z,5.15
2022-09-26T22:26:06.213Z,5.05
2022-09-26T22:28:33.580Z,5.38
2022-09-26T22:31:05.290Z,4.93
2022-09-26T22:33:33.382Z,5.43
2022-09-26T22:36:01.154Z,4.82
2022-09-26T22:38:28.331Z,5.30
2022-09-26T22:41:04.172Z,5.22
2022-09-26T22:43:32.835Z,5.22
2022-09-26T22:46:11.253Z,5.03
2022-09-26T22:48:41.442Z,4.47
2022-09-26T22:51:10.482Z,5.00
2022-09-26T22:53:39.320Z,4.30
2022-09-26T22:56:09.194Z,4.53
2022-09-26T22:58:44.414Z,4.78
2022-09-26T23:01:14.334Z,4.60
2022-09-26T23:03:41.862Z,4.10
2022-09-26T23:06:09.427Z,4.68
2022-09-26T23:08:37.160Z,4.43
2022-09-26T23:11:05.698Z,4.15
2022-09-26T23:13:35.659Z,4.15
2022-09-26T23:16:05.604Z,4.05
2022-09-26T23:18:34.812Z,4.05
2022-09-26T23:21:18.056Z,3.90
2022-09-26T23:23:47.289Z,3.67
2022-09-26T23:26:24.408Z,4.25
2022-09-26T23:28:52.913Z,4.25
2022-09-26T23:31:21.174Z,4.35
2022-09-26T23:33:48.415Z,4.43
2022-09-26T23:36:15.905Z,4.50
2022-09-26T23:38:43.210Z,4.50
2022-09-26T23:41:11.937Z,4.60
2022-09-26T23:43:39.614Z,4.13
2022-09-26T23:46:07.587Z,4.47
2022-09-26T23:48:35.414Z,4.55
2022-09-26T23:51:02.804Z,4.57
2022-09-26T23:53:30.379Z,4.45
2022-09-26T23:56:06.168Z,4.90
2022-09-26T23:58:33.494Z,4.75
